Keene, CA

10:14 PM PST on December 17, 2014 (GMT -0800)
Deer Creek, Hart Flat, CA, US | Change Station
CLOSE
Current Station
Personal Weather Station
Location: Keene, CA
Elevation: 2854 ft
Nearby Weather Stations

Elev 2854 ft 35.25 °N, 118.61 °W | Updated 3 minutes ago

Clear
Clear
38.6 °F
Feels Like 39 °F
N
0.0
Wind Variable Wind from WNW
Gusts 0.0 mph

Today
High -- | Low -- °F
--% Chance of Precip.
Yesterday
High -- | Low -- °F
Precip. -- in
6:56 AM 4:44 PM
Waning Crescent, 17% visible
Pressure 30.12 in
Visibility 10.0 miles
Clouds Clear
Windchill 39 °F
Dew Point 37 °F
Humidity 95%
Rainfall 0.33 in
Snow Depth Not available.
UV 0.0 out of 12
Pollen 1.50 out of 12
Air Quality Not available.
Flu Activity Not available.
METAR KTSP 180555Z AUTO 29012KT 10SM CLR 02/01 A3012 RMK AO2

More Conditions Fewer Conditions

Pressure 30.12 in
Visibility 10.0 miles
Clouds Clear
Windchill 39 °F
Dew Point 37 °F
Humidity 95%
Rainfall 0.33 in
Snow Depth Not available.
UV 0.0 out of 12
Pollen 1.50 out of 12
Air Quality Not available.
Flu Activity Not available.
METAR KTSP 180555Z AUTO 29012KT 10SM CLR 02/01 A3012 RMK AO2

More Conditions Fewer Conditions

10-Day Weather Forecast

Almanac

Astronomy

Dec. 17, 2014 Rise Set
Actual Time
Civil Twilight
Nautical Twilight
Astronomical Twilight
Moon
Length of Visible Light
Length of Day
Tomorrow will be .
, % of the Moon is Illuminated

Today's Extremes

State Highs State Lows

Community

WunderPhotos

Upload Photos

1,778,896 photos uploaded!

WunderBlogs® & News

Nearby

Air Quality

  Air Quality AQ Index Pollutant
Not available.

Snow Depth

Station Depth Elevation

Earthquake Activity

City Distance Mag. Time & Date
Minimum magnitude displayed is 2.5.

Coastal Water Temperatures

Place Temperature

Nearby Weather Stations